createdAt,value
2017-08-20T09:01:11.368Z,2432
2017-08-20T09:01:51.941Z,2416
2017-08-20T09:02:32.620Z,2408
2017-08-20T09:03:13.258Z,2400
2017-08-20T09:03:53.900Z,2388
2017-08-20T09:04:34.483Z,2380
2017-08-20T09:05:15.031Z,2372
2017-08-20T09:05:55.614Z,2368
2017-08-20T09:06:36.201Z,2356
2017-08-20T09:07:16.790Z,2344
2017-08-20T09:07:57.380Z,2332
2017-08-20T09:08:37.964Z,2316
2017-08-20T09:09:18.598Z,2308
2017-08-20T09:09:59.213Z,2300
2017-08-20T09:10:39.833Z,2292
2017-08-20T09:11:20.581Z,2296
2017-08-20T09:12:01.106Z,2308
2017-08-20T09:12:41.752Z,2312
2017-08-20T09:13:22.457Z,2304
2017-08-20T09:14:03.052Z,2284
2017-08-20T09:14:43.672Z,2264
2017-08-20T09:15:24.233Z,2248
2017-08-20T09:16:04.841Z,2248
2017-08-20T09:16:45.433Z,2260
2017-08-20T09:17:26.105Z,2284
2017-08-20T09:18:06.970Z,2300
2017-08-20T09:18:47.820Z,2388
2017-08-20T09:19:28.435Z,2404
2017-08-20T09:20:09.090Z,2380
2017-08-20T09:20:50.082Z,2556
2017-08-20T09:21:31.248Z,2668
2017-08-20T09:22:12.079Z,2684
2017-08-20T09:22:52.762Z,2732
2017-08-20T09:23:33.342Z,2768
2017-08-20T09:24:14.178Z,2988
2017-08-20T09:24:54.827Z,3076
2017-08-20T09:25:35.636Z,3068
2017-08-20T09:26:16.242Z,3124
2017-08-20T09:26:57.004Z,3264
2017-08-20T09:27:37.653Z,3308
2017-08-20T09:28:18.177Z,3392
2017-08-20T09:28:58.822Z,3448
2017-08-20T09:29:39.622Z,3232
2017-08-20T09:30:20.290Z,2936
2017-08-20T09:31:00.987Z,2704
2017-08-20T09:31:41.495Z,2596
2017-08-20T09:32:22.146Z,2540
2017-08-20T09:33:03.142Z,2528
2017-08-20T09:33:43.755Z,2528
2017-08-20T09:34:25.556Z,2548
2017-08-20T09:35:06.187Z,2584
2017-08-20T09:35:46.739Z,2632
2017-08-20T09:36:27.326Z,2696
2017-08-20T09:37:08.858Z,2836
2017-08-20T09:37:49.596Z,3052
2017-08-20T09:40:19.875Z,3224
2017-08-20T09:41:00.833Z,3172
